createdAt,value
2022-09-15T00:00:08.122Z,0.00
2022-09-15T00:01:08.128Z,0.00
2022-09-15T00:02:08.266Z,0.00
2022-09-15T00:03:08.285Z,0.00
2022-09-15T00:04:08.080Z,0.00
2022-09-15T00:05:08.091Z,0.00
2022-09-15T00:06:08.055Z,0.00
2022-09-15T00:07:08.048Z,0.00
2022-09-15T00:08:13.077Z,0.00
2022-09-15T00:09:08.045Z,0.00
2022-09-15T00:10:08.013Z,0.00
2022-09-15T00:11:08.019Z,0.00
2022-09-15T00:12:07.996Z,0.00
2022-09-15T00:13:07.985Z,0.00
2022-09-15T00:14:07.973Z,0.00
2022-09-15T00:15:07.963Z,0.00
2022-09-15T00:16:07.958Z,0.00
2022-09-15T00:17:07.987Z,0.00
2022-09-15T00:18:07.924Z,0.00
2022-09-15T00:19:12.960Z,0.00
2022-09-15T00:20:07.906Z,0.00
2022-09-15T00:21:07.905Z,0.00
2022-09-15T00:22:07.909Z,0.00
2022-09-15T00:23:07.883Z,0.00
2022-09-15T00:24:07.880Z,0.00
2022-09-15T00:25:07.871Z,0.00
2022-09-15T00:26:07.837Z,0.00
2022-09-15T00:27:07.829Z,0.00
2022-09-15T00:28:07.817Z,0.00
2022-09-15T00:29:07.807Z,0.00
2022-09-15T00:30:12.828Z,0.00
2022-09-15T00:31:07.900Z,0.00
2022-09-15T00:32:07.770Z,0.00
2022-09-15T00:33:07.762Z,0.00
2022-09-15T00:34:07.748Z,0.00
2022-09-15T00:35:07.759Z,0.00
2022-09-15T00:36:07.731Z,0.00
2022-09-15T00:37:07.717Z,0.00
2022-09-15T00:38:07.705Z,0.00
2022-09-15T00:39:07.695Z,0.00
2022-09-15T00:40:07.750Z,0.00
2022-09-15T00:41:12.695Z,0.00
2022-09-15T00:42:07.661Z,0.00
2022-09-15T00:43:07.652Z,0.00
2022-09-15T00:44:07.645Z,0.00
2022-09-15T00:45:07.642Z,0.00
2022-09-15T00:46:07.686Z,0.00
2022-09-15T00:47:19.304Z,0.00
2022-09-15T00:48:08.595Z,0.00
2022-09-15T00:49:07.588Z,0.00
2022-09-15T00:50:07.582Z,0.00
2022-09-15T00:51:07.565Z,0.00
2022-09-15T00:52:12.575Z,0.00
2022-09-15T00:53:07.546Z,0.00
2022-09-15T00:54:07.536Z,0.00
2022-09-15T00:55:07.540Z,0.00
2022-09-15T00:56:07.539Z,0.00
2022-09-15T00:57:07.496Z,0.00
2022-09-15T00:58:07.486Z,0.00
2022-09-15T00:59:07.476Z,0.00
2022-09-15T01:00:07.473Z,0.00
2022-09-15T01:01:07.519Z,0.00
2022-09-15T01:02:07.579Z,0.00
2022-09-15T01:03:12.453Z,0.00
2022-09-15T01:04:07.425Z,0.00
2022-09-15T01:05:07.432Z,0.00
2022-09-15T01:06:07.395Z,0.00
2022-09-15T01:07:07.390Z,0.00
2022-09-15T01:08:07.378Z,0.00
2022-09-15T01:09:07.364Z,0.00
2022-09-15T01:10:07.371Z,0.00
2022-09-15T01:11:07.342Z,0.00
2022-09-15T01:12:07.349Z,0.00
2022-09-15T01:13:07.322Z,0.00
2022-09-15T01:14:12.331Z,0.00
2022-09-15T01:15:07.314Z,0.00
2022-09-15T01:16:07.370Z,0.00
2022-09-15T01:17:07.277Z,0.00
2022-09-15T01:18:07.265Z,0.00
2022-09-15T01:19:07.257Z,0.00
2022-09-15T01:20:07.257Z,0.00
2022-09-15T01:21:07.241Z,0.00
2022-09-15T01:22:07.220Z,0.00
2022-09-15T01:23:07.212Z,0.00
2022-09-15T01:24:07.200Z,0.00
2022-09-15T01:25:12.228Z,0.00
2022-09-15T01:26:07.179Z,0.00
2022-09-15T01:27:24.397Z,0.00
2022-09-15T01:28:08.171Z,0.00
2022-09-15T01:29:07.145Z,0.00
2022-09-15T01:30:07.144Z,0.00
2022-09-15T01:31:07.135Z,0.00
2022-09-15T01:32:07.121Z,0.00
2022-09-15T01:33:07.102Z,0.00
2022-09-15T01:34:07.088Z,0.00
2022-09-15T01:35:07.089Z,0.00
2022-09-15T01:36:12.090Z,0.00
2022-09-15T01:37:07.205Z,0.00
2022-09-15T01:38:07.047Z,0.00
2022-09-15T01:39:07.035Z,0.00
2022-09-15T01:40:07.117Z,0.00
2022-09-15T01:41:07.020Z,0.00
2022-09-15T01:42:07.004Z,0.00
2022-09-15T01:43:06.991Z,0.00
2022-09-15T01:44:07.007Z,0.00
2022-09-15T01:45:06.983Z,0.00
2022-09-15T01:46:07.015Z,0.00
2022-09-15T01:47:11.966Z,0.00
2022-09-15T01:48:06.934Z,0.00
2022-09-15T01:49:06.923Z,0.00
2022-09-15T01:50:06.926Z,0.00
2022-09-15T01:51:06.909Z,0.00
2022-09-15T01:52:06.890Z,0.00
2022-09-15T01:53:06.878Z,0.00
2022-09-15T01:54:06.887Z,0.00
2022-09-15T01:55:06.883Z,0.00
2022-09-15T01:56:06.853Z,0.00
2022-09-15T01:57:06.835Z,0.00
2022-09-15T01:58:11.847Z,0.00
2022-09-15T01:59:06.891Z,0.00
2022-09-15T02:00:06.840Z,0.00
2022-09-15T02:01:06.852Z,0.00
2022-09-15T02:02:06.873Z,0.00
2022-09-15T02:03:06.766Z,0.00
2022-09-15T02:04:06.763Z,0.00
2022-09-15T02:05:06.755Z,0.00
2022-09-15T02:06:06.744Z,0.00
2022-09-15T02:07:06.725Z,0.00
2022-09-15T02:08:06.742Z,0.00
2022-09-15T02:09:11.726Z,0.00
2022-09-15T02:10:06.716Z,0.00
2022-09-15T02:11:06.682Z,0.00
2022-09-15T02:12:06.668Z,0.00
2022-09-15T02:13:06.659Z,0.00
2022-09-15T02:14:06.644Z,0.00
2022-09-15T02:15:06.644Z,0.00
2022-09-15T02:16:06.699Z,0.00
2022-09-15T02:17:06.610Z,0.00
2022-09-15T02:18:06.602Z,0.00
2022-09-15T02:19:06.588Z,0.00
2022-09-15T02:20:11.614Z,0.00
2022-09-15T02:21:06.566Z,0.00
2022-09-15T02:22:06.564Z,0.00
2022-09-15T02:23:06.547Z,0.00
2022-09-15T02:24:06.535Z,0.00
2022-09-15T02:25:06.521Z,0.00
2022-09-15T02:26:06.524Z,0.00
2022-09-15T02:27:06.499Z,0.00
2022-09-15T02:28:06.501Z,0.00
2022-09-15T02:29:06.477Z,0.00
2022-09-15T02:30:06.471Z,0.00
2022-09-15T02:31:11.609Z,0.00
2022-09-15T02:32:07.495Z,0.00
2022-09-15T02:33:06.462Z,0.00
2022-09-15T02:34:06.439Z,0.00
2022-09-15T02:35:06.419Z,0.00
2022-09-15T02:36:06.411Z,0.00
2022-09-15T02:37:06.389Z,0.00
2022-09-15T02:38:06.379Z,0.00
2022-09-15T02:39:06.367Z,0.00
2022-09-15T02:40:06.439Z,0.00
2022-09-15T02:41:06.355Z,0.00
2022-09-15T02:42:11.358Z,0.00
2022-09-15T02:43:06.324Z,0.00
2022-09-15T02:44:06.318Z,0.00
2022-09-15T02:45:06.305Z,0.00
2022-09-15T02:46:06.419Z,0.00
2022-09-15T02:47:06.308Z,0.00
2022-09-15T02:48:06.269Z,0.00
2022-09-15T02:49:06.257Z,0.00
2022-09-15T02:50:06.249Z,0.00
2022-09-15T02:51:06.249Z,0.00
2022-09-15T02:52:06.228Z,0.00
2022-09-15T02:53:11.239Z,0.00
2022-09-15T02:54:06.203Z,0.00
2022-09-15T02:55:06.191Z,0.00
2022-09-15T02:56:06.199Z,0.00
2022-09-15T02:57:06.175Z,0.00
2022-09-15T02:58:06.168Z,0.00
2022-09-15T02:59:06.146Z,0.00
2022-09-15T03:00:06.146Z,0.00
2022-09-15T03:01:06.256Z,0.00
2022-09-15T03:02:06.208Z,0.00
2022-09-15T03:03:06.155Z,0.00
2022-09-15T03:04:11.118Z,0.00
2022-09-15T03:05:06.082Z,0.00
2022-09-15T03:06:06.082Z,0.00
2022-09-15T03:07:06.064Z,0.00
2022-09-15T03:08:06.049Z,0.00
2022-09-15T03:09:06.058Z,0.00
2022-09-15T03:10:06.034Z,0.00
2022-09-15T03:11:06.050Z,0.00
2022-09-15T03:12:06.006Z,0.00
2022-09-15T03:13:05.998Z,0.00
2022-09-15T03:14:05.985Z,0.00
2022-09-15T03:15:10.998Z,0.00
2022-09-15T03:16:06.010Z,0.00
2022-09-15T03:17:05.961Z,0.00
2022-09-15T03:18:05.939Z,0.00
2022-09-15T03:19:05.945Z,0.00
2022-09-15T03:20:05.918Z,0.00
2022-09-15T03:21:05.920Z,0.00
2022-09-15T03:22:05.912Z,0.00
2022-09-15T03:23:05.886Z,0.00
2022-09-15T03:24:05.874Z,0.00
2022-09-15T03:25:05.860Z,0.00
2022-09-15T03:26:10.888Z,0.00
2022-09-15T03:27:05.845Z,0.00
2022-09-15T03:28:05.831Z,0.00
2022-09-15T03:29:05.818Z,0.00
2022-09-15T03:30:05.810Z,0.00
2022-09-15T03:31:05.885Z,0.00
2022-09-15T03:32:05.799Z,0.00
2022-09-15T03:33:05.774Z,0.00
2022-09-15T03:34:05.763Z,0.00
2022-09-15T03:35:05.769Z,0.00
2022-09-15T03:36:05.816Z,0.00
2022-09-15T03:37:10.761Z,0.00
2022-09-15T03:38:05.719Z,0.00
2022-09-15T03:39:05.707Z,0.00
2022-09-15T03:40:05.735Z,0.00
2022-09-15T03:41:05.685Z,0.00
2022-09-15T03:42:05.687Z,0.00
2022-09-15T03:43:05.665Z,0.00
2022-09-15T03:44:05.660Z,0.00
2022-09-15T03:45:05.663Z,0.00
2022-09-15T03:46:05.699Z,0.00
2022-09-15T03:47:05.628Z,0.00
2022-09-15T03:48:10.640Z,0.00
2022-09-15T03:49:05.597Z,0.00
2022-09-15T03:50:05.591Z,0.00
2022-09-15T03:51:05.621Z,0.00
2022-09-15T03:52:05.576Z,0.00
2022-09-15T03:53:05.552Z,0.00
2022-09-15T03:54:05.561Z,0.00
2022-09-15T03:55:05.536Z,0.00
2022-09-15T03:56:05.522Z,0.00
2022-09-15T03:57:05.539Z,0.00
2022-09-15T03:58:05.502Z,0.00
2022-09-15T03:59:10.510Z,0.00
2022-09-15T04:00:05.483Z,0.00
2022-09-15T04:01:05.524Z,0.00
2022-09-15T04:02:05.575Z,0.00
2022-09-15T04:03:05.445Z,0.00
2022-09-15T04:04:05.438Z,0.00
2022-09-15T04:05:05.422Z,0.00
2022-09-15T04:06:05.410Z,0.00
2022-09-15T04:07:05.541Z,0.00
2022-09-15T04:08:05.400Z,0.00
2022-09-15T04:09:05.377Z,0.00
2022-09-15T04:10:10.388Z,0.00
2022-09-15T04:11:05.355Z,0.00
2022-09-15T04:12:05.367Z,0.00
2022-09-15T04:13:05.334Z,0.00
2022-09-15T04:14:05.324Z,0.00
2022-09-15T04:15:05.317Z,0.00
2022-09-15T04:16:05.327Z,0.00
2022-09-15T04:17:05.298Z,0.00
2022-09-15T04:18:05.278Z,0.00
2022-09-15T04:19:05.269Z,0.00
2022-09-15T04:20:05.258Z,0.00
2022-09-15T04:21:10.271Z,0.00
2022-09-15T04:22:05.248Z,0.00
2022-09-15T04:23:05.250Z,0.00
2022-09-15T04:24:05.231Z,0.00
2022-09-15T04:25:05.203Z,0.00
2022-09-15T04:26:05.192Z,0.00
2022-09-15T04:27:05.199Z,0.00
2022-09-15T04:28:05.170Z,0.00
2022-09-15T04:29:05.217Z,0.00
2022-09-15T04:30:05.146Z,0.00
2022-09-15T04:31:05.219Z,0.00
2022-09-15T04:32:10.177Z,0.00
2022-09-15T04:33:05.110Z,0.00
2022-09-15T04:34:05.106Z,0.00
2022-09-15T04:35:05.088Z,0.00
2022-09-15T04:36:05.080Z,0.00
2022-09-15T04:37:05.068Z,0.00
2022-09-15T04:38:05.069Z,0.00
2022-09-15T04:39:05.066Z,0.00
2022-09-15T04:40:05.115Z,0.00
2022-09-15T04:41:05.024Z,0.00
2022-09-15T04:42:05.012Z,0.00
2022-09-15T04:43:10.033Z,0.00
2022-09-15T04:44:05.010Z,0.00
2022-09-15T04:45:04.979Z,0.00
2022-09-15T04:46:04.967Z,0.00
2022-09-15T04:47:05.033Z,0.00
2022-09-15T04:48:04.957Z,0.00
2022-09-15T04:49:04.936Z,0.00
2022-09-15T04:50:04.926Z,0.00
2022-09-15T04:51:04.938Z,0.00
2022-09-15T04:52:09.459Z,0.00
2022-09-15T04:53:04.902Z,0.00
2022-09-15T04:54:09.982Z,0.00
2022-09-15T04:55:04.878Z,0.00
2022-09-15T04:56:04.856Z,0.00
2022-09-15T04:57:04.850Z,0.00
2022-09-15T04:58:04.845Z,0.00
2022-09-15T04:59:04.821Z,0.00
2022-09-15T05:00:04.814Z,0.00
2022-09-15T05:01:04.849Z,0.00
2022-09-15T05:02:04.887Z,0.00
2022-09-15T05:03:04.819Z,0.00
2022-09-15T05:04:04.771Z,0.00
2022-09-15T05:05:09.830Z,0.00
2022-09-15T05:06:04.746Z,0.00
2022-09-15T05:07:04.733Z,0.00
2022-09-15T05:08:04.745Z,0.00
2022-09-15T05:09:09.721Z,0.00
2022-09-15T05:10:05.799Z,0.00
2022-09-15T05:11:04.689Z,0.00
2022-09-15T05:12:04.680Z,0.00
2022-09-15T05:13:04.677Z,0.00
2022-09-15T05:14:04.661Z,0.00
2022-09-15T05:15:04.645Z,0.00
2022-09-15T05:16:09.733Z,0.00
2022-09-15T05:17:04.625Z,0.00
2022-09-15T05:18:04.628Z,0.00
2022-09-15T05:19:04.611Z,0.00
2022-09-15T05:20:04.610Z,0.00
2022-09-15T05:21:04.583Z,0.00
2022-09-15T05:22:04.569Z,0.00
2022-09-15T05:23:04.565Z,0.00
2022-09-15T05:24:04.546Z,0.00
2022-09-15T05:25:04.533Z,0.00
2022-09-15T05:26:04.542Z,0.00
2022-09-15T05:27:09.532Z,0.00
2022-09-15T05:28:04.513Z,0.00
2022-09-15T05:29:04.494Z,0.00
2022-09-15T05:30:34.961Z,0.00
2022-09-15T05:31:05.542Z,0.00
2022-09-15T05:32:04.458Z,0.00
2022-09-15T05:33:04.458Z,0.00
2022-09-15T05:34:04.456Z,0.00
2022-09-15T05:35:04.424Z,0.00
2022-09-15T05:36:04.424Z,0.00
2022-09-15T05:37:04.404Z,0.00
2022-09-15T05:38:09.421Z,0.00
2022-09-15T05:39:04.377Z,0.00
2022-09-15T05:40:08.461Z,0.00
2022-09-15T05:41:04.360Z,5.62
2022-09-15T05:42:04.366Z,5.62
2022-09-15T05:43:04.343Z,5.62
2022-09-15T05:44:04.321Z,5.62
2022-09-15T05:45:04.311Z,0.00
2022-09-15T05:46:04.504Z,0.00
2022-09-15T05:47:04.293Z,0.00
2022-09-15T05:48:04.297Z,0.00
2022-09-15T05:49:09.382Z,0.00
2022-09-15T05:50:04.307Z,0.00
2022-09-15T05:51:04.280Z,0.00
2022-09-15T05:52:04.236Z,5.62
2022-09-15T05:53:04.254Z,5.62
2022-09-15T05:54:04.210Z,5.62
2022-09-15T05:55:04.294Z,11.25
2022-09-15T05:56:04.189Z,5.62
2022-09-15T05:57:04.208Z,5.62
2022-09-15T05:58:04.197Z,5.62
2022-09-15T05:59:04.161Z,5.62
2022-09-15T06:00:09.163Z,5.62
2022-09-15T06:01:04.135Z,5.62
2022-09-15T06:02:04.206Z,0.00
2022-09-15T06:03:04.278Z,0.00
2022-09-15T06:04:04.100Z,0.00
2022-09-15T06:05:04.088Z,0.00
2022-09-15T06:06:04.076Z,5.62
2022-09-15T06:07:04.119Z,5.62
2022-09-15T06:08:04.062Z,5.62
2022-09-15T06:09:04.274Z,5.62
2022-09-15T06:10:04.030Z,5.62
2022-09-15T06:11:09.044Z,5.62
2022-09-15T06:12:04.108Z,5.62
2022-09-15T06:13:04.045Z,5.62
2022-09-15T06:14:04.013Z,5.62
2022-09-15T06:15:04.000Z,5.62
2022-09-15T06:16:04.058Z,5.62
2022-09-15T06:17:03.966Z,5.62
2022-09-15T06:18:03.962Z,5.62
2022-09-15T06:19:03.937Z,5.62
2022-09-15T06:20:03.931Z,5.62
2022-09-15T06:21:03.950Z,5.62
2022-09-15T06:22:08.924Z,5.62
2022-09-15T06:23:03.906Z,5.62
2022-09-15T06:24:03.874Z,11.25
2022-09-15T06:25:03.871Z,16.88
2022-09-15T06:26:03.906Z,22.50
2022-09-15T06:27:03.843Z,16.88
2022-09-15T06:28:03.842Z,22.50
2022-09-15T06:29:03.821Z,16.88
2022-09-15T06:30:03.828Z,22.50
2022-09-15T06:31:03.799Z,16.88
2022-09-15T06:32:03.929Z,33.75
2022-09-15T06:33:08.811Z,28.12
2022-09-15T06:34:03.767Z,33.75
2022-09-15T06:35:03.878Z,28.12
2022-09-15T06:36:03.777Z,33.75
2022-09-15T06:37:03.730Z,39.38
2022-09-15T06:38:03.718Z,33.75
2022-09-15T06:39:03.792Z,33.75
2022-09-15T06:40:03.799Z,28.12
2022-09-15T06:41:03.693Z,28.12
2022-09-15T06:42:05.725Z,22.50
2022-09-15T06:43:03.725Z,16.88
2022-09-15T06:44:08.684Z,16.88
2022-09-15T06:45:03.650Z,16.88
2022-09-15T06:46:03.740Z,16.88
2022-09-15T06:47:03.623Z,16.88
2022-09-15T06:48:23.578Z,11.25
2022-09-15T06:49:04.610Z,11.25
2022-09-15T06:50:03.593Z,11.25
2022-09-15T06:51:03.596Z,11.25
2022-09-15T06:52:03.564Z,5.62
2022-09-15T06:53:03.551Z,5.62
2022-09-15T06:54:03.557Z,5.62
2022-09-15T06:55:08.551Z,5.62
2022-09-15T06:56:03.517Z,11.25
2022-09-15T06:57:03.509Z,11.25
2022-09-15T06:58:03.506Z,16.88
2022-09-15T06:59:03.500Z,22.50
2022-09-15T07:00:03.473Z,22.50
2022-09-15T07:01:03.496Z,22.50
2022-09-15T07:02:05.305Z,28.12
2022-09-15T07:03:03.571Z,28.12
2022-09-15T07:04:03.449Z,28.12
2022-09-15T07:05:03.422Z,28.12
2022-09-15T07:06:08.428Z,28.12
2022-09-15T07:07:03.399Z,28.12
2022-09-15T07:08:03.388Z,33.75
2022-09-15T07:09:03.383Z,33.75
2022-09-15T07:10:03.423Z,39.38
2022-09-15T07:11:03.399Z,39.38
2022-09-15T07:12:03.374Z,22.50
2022-09-15T07:13:03.331Z,39.38
2022-09-15T07:14:03.323Z,39.38
2022-09-15T07:15:03.303Z,50.62
2022-09-15T07:16:03.328Z,50.62
2022-09-15T07:17:08.319Z,56.25
2022-09-15T07:18:03.268Z,56.25
2022-09-15T07:19:03.272Z,61.88
2022-09-15T07:20:03.274Z,61.88
2022-09-15T07:21:03.275Z,61.88
2022-09-15T07:22:03.243Z,67.50
2022-09-15T07:23:03.213Z,73.12
2022-09-15T07:24:07.015Z,73.12
2022-09-15T07:25:03.193Z,73.12
2022-09-15T07:26:03.178Z,73.12
2022-09-15T07:27:03.168Z,78.75
2022-09-15T07:28:08.203Z,84.38
2022-09-15T07:29:03.163Z,84.38
2022-09-15T07:30:03.136Z,84.38
2022-09-15T07:31:03.119Z,84.38
2022-09-15T07:32:03.186Z,90.00
2022-09-15T07:33:03.138Z,101.25
2022-09-15T07:34:03.098Z,101.25
2022-09-15T07:35:03.076Z,95.62
2022-09-15T07:36:03.070Z,90.00
2022-09-15T07:37:03.060Z,101.25
2022-09-15T07:38:03.040Z,112.50
2022-09-15T07:39:08.066Z,118.12
2022-09-15T07:40:03.110Z,118.12
2022-09-15T07:41:03.018Z,118.12
2022-09-15T07:42:02.994Z,118.12
2022-09-15T07:43:02.985Z,118.12
2022-09-15T07:44:02.988Z,118.12
2022-09-15T07:45:02.975Z,118.12
2022-09-15T07:46:03.017Z,118.12
2022-09-15T07:47:02.961Z,123.75
2022-09-15T07:48:02.931Z,123.75
2022-09-15T07:49:03.282Z,123.75
2022-09-15T07:50:07.927Z,123.75
2022-09-15T07:51:02.895Z,118.12
2022-09-15T07:52:02.884Z,118.12
2022-09-15T07:53:02.877Z,123.75
2022-09-15T07:54:02.874Z,123.75
2022-09-15T07:55:02.852Z,129.38
2022-09-15T07:56:02.843Z,129.38
2022-09-15T07:57:02.829Z,123.75
2022-09-15T07:58:02.817Z,123.75
2022-09-15T07:59:02.826Z,123.75
2022-09-15T08:00:02.795Z,123.75
2022-09-15T08:01:08.271Z,112.50
2022-09-15T08:02:02.819Z,106.88
2022-09-15T08:03:02.789Z,106.88
2022-09-15T08:04:02.763Z,106.88
2022-09-15T08:05:02.812Z,118.12
2022-09-15T08:06:03.115Z,106.88
2022-09-15T08:07:02.718Z,106.88
2022-09-15T08:08:02.705Z,106.88
2022-09-15T08:09:02.965Z,106.88
2022-09-15T08:10:02.700Z,112.50
2022-09-15T08:11:02.679Z,118.12
2022-09-15T08:12:07.697Z,112.50
2022-09-15T08:13:02.664Z,112.50
2022-09-15T08:14:02.756Z,106.88
2022-09-15T08:15:02.629Z,112.50
2022-09-15T08:16:02.653Z,118.12
2022-09-15T08:17:02.632Z,118.12
2022-09-15T08:18:02.669Z,118.12
2022-09-15T08:19:02.681Z,112.50
2022-09-15T08:20:02.577Z,112.50
2022-09-15T08:21:02.590Z,118.12
2022-09-15T08:22:02.565Z,123.75
2022-09-15T08:23:07.674Z,123.75
2022-09-15T08:24:02.537Z,123.75
2022-09-15T08:25:02.517Z,118.12
2022-09-15T08:26:02.548Z,123.75
2022-09-15T08:27:02.500Z,123.75
2022-09-15T08:28:02.482Z,135.00
2022-09-15T08:29:02.484Z,135.00
2022-09-15T08:30:02.471Z,129.38
2022-09-15T08:31:02.508Z,140.62
2022-09-15T08:32:02.439Z,129.38
2022-09-15T08:33:02.427Z,135.00
2022-09-15T08:34:07.451Z,135.00
2022-09-15T08:35:02.405Z,135.00
2022-09-15T08:36:02.392Z,135.00
2022-09-15T08:37:02.402Z,129.38
2022-09-15T08:38:02.369Z,135.00
2022-09-15T08:39:02.381Z,140.62
2022-09-15T08:40:02.439Z,146.25
2022-09-15T08:41:02.345Z,146.25
2022-09-15T08:42:02.332Z,157.50
2022-09-15T08:43:02.316Z,168.75
2022-09-15T08:44:02.314Z,168.75
2022-09-15T08:45:07.316Z,151.88
2022-09-15T08:46:02.334Z,140.62
2022-09-15T08:47:02.271Z,140.62
2022-09-15T08:48:02.260Z,146.25
2022-09-15T08:49:03.206Z,118.12
2022-09-15T08:50:02.238Z,118.12
2022-09-15T08:51:02.227Z,106.88
2022-09-15T08:52:02.213Z,95.62
2022-09-15T08:53:02.234Z,123.75
2022-09-15T08:54:02.236Z,106.88
2022-09-15T08:55:02.203Z,101.25
2022-09-15T08:56:09.993Z,140.62
2022-09-15T08:57:02.159Z,140.62
2022-09-15T08:58:02.146Z,140.62
2022-09-15T08:59:02.164Z,146.25
2022-09-15T09:00:02.125Z,146.25
2022-09-15T09:01:02.115Z,140.62
2022-09-15T09:02:02.204Z,146.25
2022-09-15T09:03:02.298Z,146.25
2022-09-15T09:04:02.093Z,151.88
2022-09-15T09:05:02.069Z,135.00
2022-09-15T09:06:02.059Z,135.00
2022-09-15T09:07:07.072Z,151.88
2022-09-15T09:08:02.045Z,151.88
2022-09-15T09:09:02.084Z,146.25
2022-09-15T09:10:02.023Z,140.62
2022-09-15T09:11:02.013Z,140.62
2022-09-15T09:12:01.990Z,140.62
2022-09-15T09:13:01.980Z,146.25
2022-09-15T09:14:02.000Z,140.62
2022-09-15T09:15:01.981Z,140.62
2022-09-15T09:16:02.032Z,168.75
2022-09-15T09:17:01.935Z,174.38
2022-09-15T09:18:06.967Z,185.62
2022-09-15T09:19:01.912Z,163.12
2022-09-15T09:20:01.917Z,180.00
2022-09-15T09:21:01.892Z,191.25
2022-09-15T09:22:01.898Z,185.62
2022-09-15T09:23:01.887Z,180.00
2022-09-15T09:24:01.872Z,168.75
2022-09-15T09:25:11.656Z,157.50
2022-09-15T09:26:04.093Z,140.62
2022-09-15T09:27:01.889Z,118.12
2022-09-15T09:28:01.811Z,112.50
2022-09-15T09:29:06.871Z,118.12
2022-09-15T09:30:01.799Z,140.62
2022-09-15T09:31:01.820Z,140.62
2022-09-15T09:32:01.769Z,135.00
2022-09-15T09:33:01.756Z,118.12
2022-09-15T09:34:01.747Z,106.88
2022-09-15T09:35:01.773Z,106.88
2022-09-15T09:36:01.722Z,112.50
2022-09-15T09:37:01.712Z,118.12
2022-09-15T09:38:01.709Z,129.38
2022-09-15T09:39:01.693Z,123.75
2022-09-15T09:40:06.838Z,123.75
2022-09-15T09:41:02.739Z,129.38
2022-09-15T09:42:01.655Z,129.38
2022-09-15T09:43:01.646Z,140.62
2022-09-15T09:44:01.641Z,140.62
2022-09-15T09:45:01.643Z,140.62
2022-09-15T09:46:01.680Z,151.88
2022-09-15T09:47:01.601Z,151.88
2022-09-15T09:48:02.029Z,163.12
2022-09-15T09:49:01.582Z,163.12
2022-09-15T09:50:01.575Z,180.00
2022-09-15T09:51:06.673Z,168.75
2022-09-15T09:52:01.545Z,180.00
2022-09-15T09:53:01.574Z,174.38
2022-09-15T09:54:01.533Z,168.75
2022-09-15T09:55:01.550Z,157.50
2022-09-15T09:56:01.524Z,157.50
2022-09-15T09:57:01.492Z,151.88
2022-09-15T09:58:01.497Z,146.25
2022-09-15T09:59:01.468Z,151.88
2022-09-15T10:00:01.478Z,146.25
2022-09-15T10:01:01.472Z,140.62
2022-09-15T10:02:06.455Z,123.75
